sensor_id;sensor_type;location;lat;lon;timestamp;temperature;humidity
14475;DHT22;7323;50.848;4.334;2022-07-06T00:01:43;16.90;25.90
14475;DHT22;7323;50.848;4.334;2022-07-06T00:04:09;16.70;28.00
14475;DHT22;7323;50.848;4.334;2022-07-06T00:06:35;16.70;29.20
14475;DHT22;7323;50.848;4.334;2022-07-06T00:09:01;16.70;30.60
14475;DHT22;7323;50.848;4.334;2022-07-06T00:11:27;16.80;28.80
14475;DHT22;7323;50.848;4.334;2022-07-06T00:13:53;16.70;29.70
14475;DHT22;7323;50.848;4.334;2022-07-06T00:16:19;16.80;30.00
14475;DHT22;7323;50.848;4.334;2022-07-06T00:18:45;16.90;28.60
14475;DHT22;7323;50.848;4.334;2022-07-06T00:21:11;16.90;28.20
14475;DHT22;7323;50.848;4.334;2022-07-06T00:23:37;16.80;30.00
14475;DHT22;7323;50.848;4.334;2022-07-06T00:26:03;16.80;29.00
14475;DHT22;7323;50.848;4.334;2022-07-06T00:28:28;16.90;29.50
14475;DHT22;7323;50.848;4.334;2022-07-06T00:30:54;16.90;29.40
14475;DHT22;7323;50.848;4.334;2022-07-06T00:33:20;17.00;26.20
14475;DHT22;7323;50.848;4.334;2022-07-06T00:35:46;17.10;22.80
14475;DHT22;7323;50.848;4.334;2022-07-06T00:38:12;17.20;21.70
14475;DHT22;7323;50.848;4.334;2022-07-06T00:40:37;17.20;20.60
14475;DHT22;7323;50.848;4.334;2022-07-06T00:43:23;17.20;20.30
14475;DHT22;7323;50.848;4.334;2022-07-06T00:45:49;17.10;21.30
14475;DHT22;7323;50.848;4.334;2022-07-06T00:48:14;17.00;22.90
14475;DHT22;7323;50.848;4.334;2022-07-06T00:50:40;17.00;26.10
14475;DHT22;7323;50.848;4.334;2022-07-06T00:53:09;17.10;21.70
14475;DHT22;7323;50.848;4.334;2022-07-06T00:55:37;17.20;20.40
14475;DHT22;7323;50.848;4.334;2022-07-06T00:58:05;17.20;18.30
14475;DHT22;7323;50.848;4.334;2022-07-06T01:00:32;17.20;18.20
14475;DHT22;7323;50.848;4.334;2022-07-06T01:02:58;17.30;16.30
14475;DHT22;7323;50.848;4.334;2022-07-06T01:05:24;17.30;17.70
14475;DHT22;7323;50.848;4.334;2022-07-06T01:07:51;17.20;14.90
14475;DHT22;7323;50.848;4.334;2022-07-06T01:10:18;17.20;17.00
14475;DHT22;7323;50.848;4.334;2022-07-06T01:12:45;17.20;17.30
14475;DHT22;7323;50.848;4.334;2022-07-06T01:15:23;17.20;14.50
14475;DHT22;7323;50.848;4.334;2022-07-06T01:17:49;17.10;16.50
14475;DHT22;7323;50.848;4.334;2022-07-06T01:22:46;17.00;18.20
14475;DHT22;7323;50.848;4.334;2022-07-06T01:25:14;16.90;21.30
14475;DHT22;7323;50.848;4.334;2022-07-06T01:27:41;16.90;26.00
14475;DHT22;7323;50.848;4.334;2022-07-06T01:30:09;16.90;27.30
14475;DHT22;7323;50.848;4.334;2022-07-06T01:32:37;16.70;30.00
14475;DHT22;7323;50.848;4.334;2022-07-06T01:35:03;16.60;34.70
14475;DHT22;7323;50.848;4.334;2022-07-06T01:37:30;16.50;37.10
14475;DHT22;7323;50.848;4.334;2022-07-06T01:40:01;16.60;37.60
14475;DHT22;7323;50.848;4.334;2022-07-06T01:42:27;16.60;36.10
14475;DHT22;7323;50.848;4.334;2022-07-06T01:44:53;16.60;34.80
14475;DHT22;7323;50.848;4.334;2022-07-06T01:47:19;16.60;33.40
14475;DHT22;7323;50.848;4.334;2022-07-06T01:49:45;16.60;34.20
14475;DHT22;7323;50.848;4.334;2022-07-06T01:52:11;16.50;36.30
14475;DHT22;7323;50.848;4.334;2022-07-06T01:54:40;16.50;37.30
14475;DHT22;7323;50.848;4.334;2022-07-06T01:57:06;16.40;37.10
14475;DHT22;7323;50.848;4.334;2022-07-06T01:59:33;16.40;36.60
14475;DHT22;7323;50.848;4.334;2022-07-06T02:01:59;16.40;37.30
14475;DHT22;7323;50.848;4.334;2022-07-06T02:04:25;16.40;35.30
14475;DHT22;7323;50.848;4.334;2022-07-06T02:06:50;16.50;33.20
14475;DHT22;7323;50.848;4.334;2022-07-06T02:09:16;16.60;31.50
14475;DHT22;7323;50.848;4.334;2022-07-06T02:11:43;16.60;28.10
14475;DHT22;7323;50.848;4.334;2022-07-06T02:14:08;16.60;28.90
14475;DHT22;7323;50.848;4.334;2022-07-06T02:16:34;16.60;25.50
14475;DHT22;7323;50.848;4.334;2022-07-06T02:19:00;16.50;27.80
14475;DHT22;7323;50.848;4.334;2022-07-06T02:21:27;16.40;32.60
14475;DHT22;7323;50.848;4.334;2022-07-06T02:23:52;16.40;32.30
14475;DHT22;7323;50.848;4.334;2022-07-06T02:26:18;16.40;30.60
14475;DHT22;7323;50.848;4.334;2022-07-06T02:28:44;16.50;29.50
14475;DHT22;7323;50.848;4.334;2022-07-06T02:31:11;16.20;35.10
14475;DHT22;7323;50.848;4.334;2022-07-06T02:33:39;16.10;38.60
14475;DHT22;7323;50.848;4.334;2022-07-06T02:36:04;16.00;42.60
14475;DHT22;7323;50.848;4.334;2022-07-06T02:38:30;16.00;44.00
14475;DHT22;7323;50.848;4.334;2022-07-06T02:40:56;16.10;43.20
14475;DHT22;7323;50.848;4.334;2022-07-06T02:43:21;16.20;41.40
14475;DHT22;7323;50.848;4.334;2022-07-06T02:45:47;16.30;39.40
14475;DHT22;7323;50.848;4.334;2022-07-06T02:48:13;16.40;37.70
14475;DHT22;7323;50.848;4.334;2022-07-06T02:50:39;16.40;36.00
14475;DHT22;7323;50.848;4.334;2022-07-06T02:53:05;16.30;35.20
14475;DHT22;7323;50.848;4.334;2022-07-06T02:55:30;16.40;34.00
14475;DHT22;7323;50.848;4.334;2022-07-06T02:57:56;16.30;35.30
14475;DHT22;7323;50.848;4.334;2022-07-06T03:00:22;16.30;34.80
14475;DHT22;7323;50.848;4.334;2022-07-06T03:02:51;16.30;31.30
14475;DHT22;7323;50.848;4.334;2022-07-06T03:05:24;16.30;31.90
14475;DHT22;7323;50.848;4.334;2022-07-06T03:07:51;16.30;34.00
14475;DHT22;7323;50.848;4.334;2022-07-06T03:10:17;16.10;38.20
14475;DHT22;7323;50.848;4.334;2022-07-06T03:12:46;16.10;39.60
14475;DHT22;7323;50.848;4.334;2022-07-06T03:15:12;16.10;40.80
14475;DHT22;7323;50.848;4.334;2022-07-06T03:17:40;16.10;39.80
14475;DHT22;7323;50.848;4.334;2022-07-06T03:20:06;16.00;40.80
14475;DHT22;7323;50.848;4.334;2022-07-06T03:22:38;16.10;38.70
14475;DHT22;7323;50.848;4.334;2022-07-06T03:25:06;16.10;40.50
14475;DHT22;7323;50.848;4.334;2022-07-06T03:27:32;16.00;42.30
14475;DHT22;7323;50.848;4.334;2022-07-06T03:29:59;16.00;42.00
14475;DHT22;7323;50.848;4.334;2022-07-06T03:32:26;16.10;40.80
14475;DHT22;7323;50.848;4.334;2022-07-06T03:35:29;16.00;39.80
14475;DHT22;7323;50.848;4.334;2022-07-06T03:37:56;15.90;42.20
14475;DHT22;7323;50.848;4.334;2022-07-06T03:40:22;15.70;45.90
14475;DHT22;7323;50.848;4.334;2022-07-06T03:42:47;15.70;46.70
14475;DHT22;7323;50.848;4.334;2022-07-06T03:45:13;15.70;45.60
14475;DHT22;7323;50.848;4.334;2022-07-06T03:47:38;15.80;43.90
14475;DHT22;7323;50.848;4.334;2022-07-06T03:50:05;15.70;45.60
14475;DHT22;7323;50.848;4.334;2022-07-06T03:52:30;15.60;49.00
14475;DHT22;7323;50.848;4.334;2022-07-06T03:54:56;15.60;50.50
14475;DHT22;7323;50.848;4.334;2022-07-06T03:57:22;15.50;51.40
14475;DHT22;7323;50.848;4.334;2022-07-06T03:59:47;15.70;51.60
14475;DHT22;7323;50.848;4.334;2022-07-06T04:02:13;15.70;47.50
14475;DHT22;7323;50.848;4.334;2022-07-06T04:04:39;15.80;46.30
14475;DHT22;7323;50.848;4.334;2022-07-06T04:07:05;15.80;44.80
14475;DHT22;7323;50.848;4.334;2022-07-06T04:09:30;15.70;45.50
14475;DHT22;7323;50.848;4.334;2022-07-06T04:11:56;15.70;48.70
14475;DHT22;7323;50.848;4.334;2022-07-06T04:14:22;15.70;50.20
14475;DHT22;7323;50.848;4.334;2022-07-06T04:16:48;15.90;47.60
14475;DHT22;7323;50.848;4.334;2022-07-06T04:19:13;15.80;44.20
14475;DHT22;7323;50.848;4.334;2022-07-06T04:21:39;15.90;45.40
14475;DHT22;7323;50.848;4.334;2022-07-06T04:24:05;15.90;42.20
14475;DHT22;7323;50.848;4.334;2022-07-06T04:26:31;16.00;40.00
14475;DHT22;7323;50.848;4.334;2022-07-06T04:28:58;16.00;39.70
14475;DHT22;7323;50.848;4.334;2022-07-06T04:31:23;16.10;37.40
14475;DHT22;7323;50.848;4.334;2022-07-06T04:33:49;16.20;33.70
14475;DHT22;7323;50.848;4.334;2022-07-06T04:36:15;16.20;33.40
14475;DHT22;7323;50.848;4.334;2022-07-06T04:38:41;16.20;31.00
14475;DHT22;7323;50.848;4.334;2022-07-06T04:41:07;16.30;30.00
14475;DHT22;7323;50.848;4.334;2022-07-06T04:43:36;16.20;32.60
14475;DHT22;7323;50.848;4.334;2022-07-06T04:46:01;16.10;35.10
14475;DHT22;7323;50.848;4.334;2022-07-06T04:48:27;16.10;35.60
14475;DHT22;7323;50.848;4.334;2022-07-06T04:50:54;16.30;32.80
14475;DHT22;7323;50.848;4.334;2022-07-06T04:53:19;16.40;30.40
14475;DHT22;7323;50.848;4.334;2022-07-06T04:55:45;16.50;27.90
14475;DHT22;7323;50.848;4.334;2022-07-06T04:58:11;16.60;27.00
14475;DHT22;7323;50.848;4.334;2022-07-06T05:00:36;16.60;29.30
14475;DHT22;7323;50.848;4.334;2022-07-06T05:03:03;16.40;30.40
14475;DHT22;7323;50.848;4.334;2022-07-06T05:05:29;16.60;28.80
14475;DHT22;7323;50.848;4.334;2022-07-06T05:07:54;16.70;25.30
14475;DHT22;7323;50.848;4.334;2022-07-06T05:10:20;16.70;25.30
14475;DHT22;7323;50.848;4.334;2022-07-06T05:12:46;16.70;27.50
14475;DHT22;7323;50.848;4.334;2022-07-06T05:15:11;16.50;29.50
14475;DHT22;7323;50.848;4.334;2022-07-06T05:17:37;16.50;29.90
14475;DHT22;7323;50.848;4.334;2022-07-06T05:20:03;16.40;31.70
14475;DHT22;7323;50.848;4.334;2022-07-06T05:22:30;16.40;34.50
14475;DHT22;7323;50.848;4.334;2022-07-06T05:24:55;16.40;33.70
14475;DHT22;7323;50.848;4.334;2022-07-06T05:27:21;16.50;34.60
14475;DHT22;7323;50.848;4.334;2022-07-06T05:29:47;16.60;31.70
14475;DHT22;7323;50.848;4.334;2022-07-06T05:32:12;16.60;30.80
14475;DHT22;7323;50.848;4.334;2022-07-06T05:34:38;16.60;30.00
14475;DHT22;7323;50.848;4.334;2022-07-06T05:37:05;16.80;27.80
14475;DHT22;7323;50.848;4.334;2022-07-06T05:39:31;16.90;26.10
14475;DHT22;7323;50.848;4.334;2022-07-06T05:42:07;16.90;24.80
14475;DHT22;7323;50.848;4.334;2022-07-06T05:44:33;17.00;20.60
14475;DHT22;7323;50.848;4.334;2022-07-06T05:46:59;17.00;22.20
14475;DHT22;7323;50.848;4.334;2022-07-06T05:49:45;17.00;22.80
14475;DHT22;7323;50.848;4.334;2022-07-06T05:52:29;17.00;22.70
14475;DHT22;7323;50.848;4.334;2022-07-06T05:54:54;17.00;23.40
14475;DHT22;7323;50.848;4.334;2022-07-06T05:57:20;17.10;21.90
14475;DHT22;7323;50.848;4.334;2022-07-06T05:59:47;17.30;18.50
14475;DHT22;7323;50.848;4.334;2022-07-06T06:02:13;17.50;12.50
14475;DHT22;7323;50.848;4.334;2022-07-06T06:04:39;17.60;11.30
14475;DHT22;7323;50.848;4.334;2022-07-06T06:07:05;17.50;16.30
14475;DHT22;7323;50.848;4.334;2022-07-06T06:09:30;17.50;17.70
14475;DHT22;7323;50.848;4.334;2022-07-06T06:11:56;17.50;16.90
14475;DHT22;7323;50.848;4.334;2022-07-06T06:14:22;17.50;16.60
14475;DHT22;7323;50.848;4.334;2022-07-06T06:16:47;17.60;15.20
14475;DHT22;7323;50.848;4.334;2022-07-06T06:19:13;17.70;15.50
14475;DHT22;7323;50.848;4.334;2022-07-06T06:21:38;17.90;15.10
14475;DHT22;7323;50.848;4.334;2022-07-06T06:24:07;18.10;7.80
14475;DHT22;7323;50.848;4.334;2022-07-06T06:26:33;18.20;6.50
14475;DHT22;7323;50.848;4.334;2022-07-06T06:29:01;18.40;3.00
14475;DHT22;7323;50.848;4.334;2022-07-06T06:31:26;18.60;1.00
14475;DHT22;7323;50.848;4.334;2022-07-06T06:33:52;18.80;1.00
14475;DHT22;7323;50.848;4.334;2022-07-06T06:36:18;18.90;1.00
14475;DHT22;7323;50.848;4.334;2022-07-06T06:38:44;18.90;1.00
14475;DHT22;7323;50.848;4.334;2022-07-06T06:41:10;19.00;1.00
14475;DHT22;7323;50.848;4.334;2022-07-06T06:43:36;19.20;1.00
14475;DHT22;7323;50.848;4.334;2022-07-06T06:46:01;19.30;1.00
14475;DHT22;7323;50.848;4.334;2022-07-06T06:48:27;19.60;1.00
14475;DHT22;7323;50.848;4.334;2022-07-06T06:50:53;19.90;1.00
14475;DHT22;7323;50.848;4.334;2022-07-06T06:53:19;20.10;1.00
14475;DHT22;7323;50.848;4.334;2022-07-06T06:55:44;20.30;1.00
14475;DHT22;7323;50.848;4.334;2022-07-06T06:58:10;20.40;1.00
14475;DHT22;7323;50.848;4.334;2022-07-06T07:00:35;20.50;1.00
14475;DHT22;7323;50.848;4.334;2022-07-06T07:03:01;20.40;1.00
14475;DHT22;7323;50.848;4.334;2022-07-06T07:05:27;20.30;1.00
14475;DHT22;7323;50.848;4.334;2022-07-06T07:07:52;20.00;1.00
14475;DHT22;7323;50.848;4.334;2022-07-06T07:10:20;19.90;1.00
14475;DHT22;7323;50.848;4.334;2022-07-06T07:12:47;20.00;1.00
14475;DHT22;7323;50.848;4.334;2022-07-06T07:15:13;20.20;1.00
14475;DHT22;7323;50.848;4.334;2022-07-06T07:17:39;20.40;1.00
14475;DHT22;7323;50.848;4.334;2022-07-06T07:20:06;20.40;1.00
14475;DHT22;7323;50.848;4.334;2022-07-06T07:22:32;20.40;1.00
14475;DHT22;7323;50.848;4.334;2022-07-06T07:24:58;20.20;1.00
14475;DHT22;7323;50.848;4.334;2022-07-06T07:27:27;20.00;1.00
14475;DHT22;7323;50.848;4.334;2022-07-06T07:29:52;19.90;1.00
14475;DHT22;7323;50.848;4.334;2022-07-06T07:32:19;19.90;1.00
14475;DHT22;7323;50.848;4.334;2022-07-06T07:34:45;19.80;1.00
14475;DHT22;7323;50.848;4.334;2022-07-06T07:37:11;19.60;1.00
14475;DHT22;7323;50.848;4.334;2022-07-06T07:39:37;19.80;1.00
14475;DHT22;7323;50.848;4.334;2022-07-06T07:42:03;20.00;1.00
14475;DHT22;7323;50.848;4.334;2022-07-06T07:44:28;20.20;1.00
14475;DHT22;7323;50.848;4.334;2022-07-06T07:46:54;20.30;1.00
14475;DHT22;7323;50.848;4.334;2022-07-06T07:49:20;20.20;1.00
14475;DHT22;7323;50.848;4.334;2022-07-06T07:51:47;20.10;1.00
14475;DHT22;7323;50.848;4.334;2022-07-06T07:54:13;20.30;1.00
14475;DHT22;7323;50.848;4.334;2022-07-06T07:56:39;20.30;1.00
14475;DHT22;7323;50.848;4.334;2022-07-06T07:59:08;20.30;1.00
14475;DHT22;7323;50.848;4.334;2022-07-06T08:01:34;20.00;1.00
14475;DHT22;7323;50.848;4.334;2022-07-06T08:04:03;19.80;1.00
14475;DHT22;7323;50.848;4.334;2022-07-06T08:06:29;19.70;1.00
14475;DHT22;7323;50.848;4.334;2022-07-06T08:08:54;19.80;1.00
14475;DHT22;7323;50.848;4.334;2022-07-06T08:11:20;19.60;1.00
14475;DHT22;7323;50.848;4.334;2022-07-06T08:13:47;19.60;1.00
14475;DHT22;7323;50.848;4.334;2022-07-06T08:16:12;19.60;1.00
14475;DHT22;7323;50.848;4.334;2022-07-06T08:18:38;19.90;1.00
14475;DHT22;7323;50.848;4.334;2022-07-06T08:21:04;20.10;1.00
14475;DHT22;7323;50.848;4.334;2022-07-06T08:23:31;20.20;1.00
14475;DHT22;7323;50.848;4.334;2022-07-06T08:25:56;20.20;1.00
14475;DHT22;7323;50.848;4.334;2022-07-06T08:28:22;20.30;1.00
14475;DHT22;7323;50.848;4.334;2022-07-06T08:30:48;20.10;1.00
14475;DHT22;7323;50.848;4.334;2022-07-06T08:33:14;20.10;1.00
14475;DHT22;7323;50.848;4.334;2022-07-06T08:35:40;20.00;1.00
14475;DHT22;7323;50.848;4.334;2022-07-06T08:38:06;20.00;1.00
14475;DHT22;7323;50.848;4.334;2022-07-06T08:40:36;20.10;1.00
14475;DHT22;7323;50.848;4.334;2022-07-06T08:43:03;20.10;1.00
14475;DHT22;7323;50.848;4.334;2022-07-06T08:45:29;20.40;1.00
14475;DHT22;7323;50.848;4.334;2022-07-06T08:47:59;20.60;1.00
14475;DHT22;7323;50.848;4.334;2022-07-06T08:50:28;20.40;1.00
14475;DHT22;7323;50.848;4.334;2022-07-06T08:52:55;20.50;1.00
14475;DHT22;7323;50.848;4.334;2022-07-06T08:55:24;20.50;1.00
14475;DHT22;7323;50.848;4.334;2022-07-06T08:57:50;20.50;1.00
14475;DHT22;7323;50.848;4.334;2022-07-06T09:00:18;20.80;1.00
14475;DHT22;7323;50.848;4.334;2022-07-06T09:02:44;20.90;1.00
14475;DHT22;7323;50.848;4.334;2022-07-06T09:05:14;20.80;1.00
14475;DHT22;7323;50.848;4.334;2022-07-06T09:07:40;20.70;1.00
14475;DHT22;7323;50.848;4.334;2022-07-06T09:10:08;20.70;1.00
14475;DHT22;7323;50.848;4.334;2022-07-06T09:12:34;20.60;1.00
14475;DHT22;7323;50.848;4.334;2022-07-06T09:15:00;21.00;1.00
14475;DHT22;7323;50.848;4.334;2022-07-06T09:17:27;20.80;1.00
14475;DHT22;7323;50.848;4.334;2022-07-06T09:19:54;20.70;1.00
14475;DHT22;7323;50.848;4.334;2022-07-06T09:22:31;20.50;1.00
14475;DHT22;7323;50.848;4.334;2022-07-06T09:25:06;20.60;1.00
14475;DHT22;7323;50.848;4.334;2022-07-06T09:27:37;20.40;1.00
14475;DHT22;7323;50.848;4.334;2022-07-06T09:30:04;20.20;1.00
14475;DHT22;7323;50.848;4.334;2022-07-06T09:32:30;20.30;1.00
14475;DHT22;7323;50.848;4.334;2022-07-06T09:34:56;20.50;1.00
14475;DHT22;7323;50.848;4.334;2022-07-06T09:37:22;20.90;1.00
14475;DHT22;7323;50.848;4.334;2022-07-06T09:43:23;21.70;1.00
14475;DHT22;7323;50.848;4.334;2022-07-06T09:45:52;22.10;99.90
14475;DHT22;7323;50.848;4.334;2022-07-06T09:48:22;22.10;99.90
14475;DHT22;7323;50.848;4.334;2022-07-06T09:50:53;22.30;99.90
14475;DHT22;7323;50.848;4.334;2022-07-06T09:53:20;21.70;99.90
14475;DHT22;7323;50.848;4.334;2022-07-06T09:55:48;21.50;99.90
14475;DHT22;7323;50.848;4.334;2022-07-06T09:58:15;21.50;1.00
14475;DHT22;7323;50.848;4.334;2022-07-06T10:00:45;21.50;99.90
14475;DHT22;7323;50.848;4.334;2022-07-06T10:03:12;21.50;99.90
14475;DHT22;7323;50.848;4.334;2022-07-06T10:05:44;21.60;99.90
14475;DHT22;7323;50.848;4.334;2022-07-06T10:08:11;21.50;99.90
14475;DHT22;7323;50.848;4.334;2022-07-06T10:10:39;21.50;99.90
14475;DHT22;7323;50.848;4.334;2022-07-06T10:13:08;21.40;1.00
14475;DHT22;7323;50.848;4.334;2022-07-06T10:15:37;21.30;1.00
14475;DHT22;7323;50.848;4.334;2022-07-06T10:18:09;21.30;1.00
14475;DHT22;7323;50.848;4.334;2022-07-06T10:20:37;21.40;1.00
14475;DHT22;7323;50.848;4.334;2022-07-06T10:23:08;21.50;1.00
14475;DHT22;7323;50.848;4.334;2022-07-06T10:25:40;21.60;1.00
14475;DHT22;7323;50.848;4.334;2022-07-06T10:28:05;21.50;1.00
14475;DHT22;7323;50.848;4.334;2022-07-06T10:30:39;21.50;1.00
14475;DHT22;7323;50.848;4.334;2022-07-06T10:33:05;21.50;1.00
14475;DHT22;7323;50.848;4.334;2022-07-06T10:35:31;21.40;1.00
14475;DHT22;7323;50.848;4.334;2022-07-06T10:38:06;21.40;1.00
14475;DHT22;7323;50.848;4.334;2022-07-06T10:40:38;21.50;1.00
14475;DHT22;7323;50.848;4.334;2022-07-06T10:43:22;21.30;1.00
14475;DHT22;7323;50.848;4.334;2022-07-06T10:48:17;21.70;1.00
14475;DHT22;7323;50.848;4.334;2022-07-06T10:50:58;22.00;99.90
14475;DHT22;7323;50.848;4.334;2022-07-06T10:53:37;21.70;99.90
14475;DHT22;7323;50.848;4.334;2022-07-06T10:56:06;21.60;1.00
14475;DHT22;7323;50.848;4.334;2022-07-06T10:58:48;21.40;1.00
14475;DHT22;7323;50.848;4.334;2022-07-06T11:01:17;21.60;1.00
14475;DHT22;7323;50.848;4.334;2022-07-06T11:06:17;21.80;99.90
14475;DHT22;7323;50.848;4.334;2022-07-06T11:08:56;21.90;99.90
14475;DHT22;7323;50.848;4.334;2022-07-06T11:11:42;22.20;99.90
14475;DHT22;7323;50.848;4.334;2022-07-06T11:14:14;22.20;99.90
14475;DHT22;7323;50.848;4.334;2022-07-06T11:19:17;21.80;99.90
14475;DHT22;7323;50.848;4.334;2022-07-06T11:21:50;21.80;99.90
14475;DHT22;7323;50.848;4.334;2022-07-06T11:24:22;22.00;99.90
14475;DHT22;7323;50.848;4.334;2022-07-06T11:26:50;21.80;94.10
14475;DHT22;7323;50.848;4.334;2022-07-06T11:29:18;21.90;1.00
14475;DHT22;7323;50.848;4.334;2022-07-06T11:31:48;22.10;1.00
14475;DHT22;7323;50.848;4.334;2022-07-06T11:34:22;22.00;1.00
14475;DHT22;7323;50.848;4.334;2022-07-06T11:37:03;22.10;99.90
14475;DHT22;7323;50.848;4.334;2022-07-06T11:39:34;21.90;99.90
14475;DHT22;7323;50.848;4.334;2022-07-06T11:42:01;21.80;99.90
14475;DHT22;7323;50.848;4.334;2022-07-06T11:44:30;22.10;99.90
14475;DHT22;7323;50.848;4.334;2022-07-06T11:46:56;22.20;42.10
14475;DHT22;7323;50.848;4.334;2022-07-06T11:49:25;21.90;99.90
14475;DHT22;7323;50.848;4.334;2022-07-06T11:51:50;21.80;99.90
14475;DHT22;7323;50.848;4.334;2022-07-06T11:54:17;22.10;99.90
14475;DHT22;7323;50.848;4.334;2022-07-06T11:56:54;22.40;57.30
14475;DHT22;7323;50.848;4.334;2022-07-06T11:59:22;22.40;1.00
14475;DHT22;7323;50.848;4.334;2022-07-06T12:01:48;22.60;1.00
14475;DHT22;7323;50.848;4.334;2022-07-06T12:04:24;22.70;1.00
14475;DHT22;7323;50.848;4.334;2022-07-06T12:06:51;22.90;1.00
14475;DHT22;7323;50.848;4.334;2022-07-06T12:09:20;22.80;99.90
14475;DHT22;7323;50.848;4.334;2022-07-06T12:11:47;22.70;1.00
14475;DHT22;7323;50.848;4.334;2022-07-06T12:14:18;22.90;1.00
14475;DHT22;7323;50.848;4.334;2022-07-06T12:16:45;22.60;1.00
14475;DHT22;7323;50.848;4.334;2022-07-06T12:19:11;22.30;28.80
14475;DHT22;7323;50.848;4.334;2022-07-06T12:21:48;22.40;1.00
14475;DHT22;7323;50.848;4.334;2022-07-06T12:24:24;22.60;1.00
14475;DHT22;7323;50.848;4.334;2022-07-06T12:26:53;22.80;36.10
14475;DHT22;7323;50.848;4.334;2022-07-06T12:29:19;22.60;1.00
14475;DHT22;7323;50.848;4.334;2022-07-06T12:31:56;22.50;1.00
14475;DHT22;7323;50.848;4.334;2022-07-06T12:34:29;22.30;99.90
14475;DHT22;7323;50.848;4.334;2022-07-06T12:37:07;22.40;99.90
14475;DHT22;7323;50.848;4.334;2022-07-06T12:39:44;22.40;99.90
14475;DHT22;7323;50.848;4.334;2022-07-06T12:42:14;22.70;99.90
14475;DHT22;7323;50.848;4.334;2022-07-06T12:44:51;22.70;99.90
14475;DHT22;7323;50.848;4.334;2022-07-06T12:47:19;22.90;99.90
14475;DHT22;7323;50.848;4.334;2022-07-06T12:50:10;22.80;1.00
14475;DHT22;7323;50.848;4.334;2022-07-06T12:52:40;22.90;1.00
14475;DHT22;7323;50.848;4.334;2022-07-06T12:55:09;23.00;1.00
14475;DHT22;7323;50.848;4.334;2022-07-06T12:57:48;22.70;1.00
14475;DHT22;7323;50.848;4.334;2022-07-06T13:00:15;22.80;33.80
14475;DHT22;7323;50.848;4.334;2022-07-06T13:02:44;22.80;1.00
14475;DHT22;7323;50.848;4.334;2022-07-06T13:05:12;22.80;1.00
14475;DHT22;7323;50.848;4.334;2022-07-06T13:07:45;22.70;1.00
14475;DHT22;7323;50.848;4.334;2022-07-06T13:10:12;22.80;1.00
14475;DHT22;7323;50.848;4.334;2022-07-06T13:12:40;22.90;1.00
14475;DHT22;7323;50.848;4.334;2022-07-06T13:15:07;22.80;1.00
14475;DHT22;7323;50.848;4.334;2022-07-06T13:17:34;22.90;79.80
14475;DHT22;7323;50.848;4.334;2022-07-06T13:20:01;23.00;50.40
14475;DHT22;7323;50.848;4.334;2022-07-06T13:22:27;23.00;1.00
14475;DHT22;7323;50.848;4.334;2022-07-06T13:24:56;22.70;16.80
14475;DHT22;7323;50.848;4.334;2022-07-06T13:27:22;22.80;33.10
14475;DHT22;7323;50.848;4.334;2022-07-06T13:29:54;22.90;1.00
14475;DHT22;7323;50.848;4.334;2022-07-06T13:32:23;22.90;1.00
14475;DHT22;7323;50.848;4.334;2022-07-06T13:34:49;22.90;1.00
14475;DHT22;7323;50.848;4.334;2022-07-06T13:37:28;22.90;1.00
14475;DHT22;7323;50.848;4.334;2022-07-06T13:39:57;23.00;1.00
14475;DHT22;7323;50.848;4.334;2022-07-06T13:42:25;23.20;1.00
14475;DHT22;7323;50.848;4.334;2022-07-06T13:44:51;23.50;1.00
14475;DHT22;7323;50.848;4.334;2022-07-06T13:47:16;23.70;1.00
14475;DHT22;7323;50.848;4.334;2022-07-06T13:49:42;23.90;99.90
14475;DHT22;7323;50.848;4.334;2022-07-06T13:52:09;23.80;31.70
14475;DHT22;7323;50.848;4.334;2022-07-06T13:54:34;23.90;1.00
14475;DHT22;7323;50.848;4.334;2022-07-06T13:57:04;24.10;1.00
14475;DHT22;7323;50.848;4.334;2022-07-06T13:59:31;23.80;1.00
14475;DHT22;7323;50.848;4.334;2022-07-06T14:01:57;23.80;99.90
14475;DHT22;7323;50.848;4.334;2022-07-06T14:04:23;23.60;1.00
14475;DHT22;7323;50.848;4.334;2022-07-06T14:06:48;23.40;99.90
14475;DHT22;7323;50.848;4.334;2022-07-06T14:09:14;23.40;99.90
14475;DHT22;7323;50.848;4.334;2022-07-06T14:11:40;23.50;88.40
14475;DHT22;7323;50.848;4.334;2022-07-06T14:14:05;23.30;99.90
14475;DHT22;7323;50.848;4.334;2022-07-06T14:16:35;23.30;1.00
14475;DHT22;7323;50.848;4.334;2022-07-06T14:19:01;23.50;31.60
14475;DHT22;7323;50.848;4.334;2022-07-06T14:21:27;23.70;1.00
14475;DHT22;7323;50.848;4.334;2022-07-06T14:23:54;24.00;1.00
14475;DHT22;7323;50.848;4.334;2022-07-06T14:26:19;23.80;19.70
14475;DHT22;7323;50.848;4.334;2022-07-06T14:28:51;23.70;99.90
14475;DHT22;7323;50.848;4.334;2022-07-06T14:31:16;23.60;1.00
14475;DHT22;7323;50.848;4.334;2022-07-06T14:33:42;23.30;99.90
14475;DHT22;7323;50.848;4.334;2022-07-06T14:36:08;23.20;99.90
14475;DHT22;7323;50.848;4.334;2022-07-06T14:38:34;23.30;1.00
14475;DHT22;7323;50.848;4.334;2022-07-06T14:40:59;23.40;1.00
14475;DHT22;7323;50.848;4.334;2022-07-06T14:43:28;23.70;99.90
14475;DHT22;7323;50.848;4.334;2022-07-06T14:45:56;23.60;99.90
14475;DHT22;7323;50.848;4.334;2022-07-06T14:48:22;23.50;99.90
14475;DHT22;7323;50.848;4.334;2022-07-06T14:50:48;23.20;1.00
14475;DHT22;7323;50.848;4.334;2022-07-06T14:53:14;23.30;1.00
14475;DHT22;7323;50.848;4.334;2022-07-06T14:55:50;23.40;1.00
14475;DHT22;7323;50.848;4.334;2022-07-06T14:58:18;23.80;99.90
14475;DHT22;7323;50.848;4.334;2022-07-06T15:00:47;23.90;1.00
14475;DHT22;7323;50.848;4.334;2022-07-06T15:03:13;23.80;99.90
14475;DHT22;7323;50.848;4.334;2022-07-06T15:05:39;24.00;99.90
14475;DHT22;7323;50.848;4.334;2022-07-06T15:08:05;24.10;99.90
14475;DHT22;7323;50.848;4.334;2022-07-06T15:10:31;24.20;99.90
14475;DHT22;7323;50.848;4.334;2022-07-06T15:12:57;24.30;3.40
14475;DHT22;7323;50.848;4.334;2022-07-06T15:15:28;24.50;1.00
14475;DHT22;7323;50.848;4.334;2022-07-06T15:17:57;24.80;65.70
14475;DHT22;7323;50.848;4.334;2022-07-06T15:20:23;24.50;1.00
14475;DHT22;7323;50.848;4.334;2022-07-06T15:22:49;24.40;1.00
14475;DHT22;7323;50.848;4.334;2022-07-06T15:25:14;24.20;16.90
14475;DHT22;7323;50.848;4.334;2022-07-06T15:27:40;24.10;99.90
14475;DHT22;7323;50.848;4.334;2022-07-06T15:30:07;24.10;99.90
14475;DHT22;7323;50.848;4.334;2022-07-06T15:32:33;24.00;1.00
14475;DHT22;7323;50.848;4.334;2022-07-06T15:35:00;23.90;99.90
14475;DHT22;7323;50.848;4.334;2022-07-06T15:37:27;24.00;1.00
14475;DHT22;7323;50.848;4.334;2022-07-06T15:39:53;24.10;99.90
14475;DHT22;7323;50.848;4.334;2022-07-06T15:42:19;24.00;1.00
14475;DHT22;7323;50.848;4.334;2022-07-06T15:44:45;24.00;1.00
14475;DHT22;7323;50.848;4.334;2022-07-06T15:47:10;23.80;1.00
14475;DHT22;7323;50.848;4.334;2022-07-06T15:49:37;23.60;97.40
14475;DHT22;7323;50.848;4.334;2022-07-06T15:52:03;23.50;99.90
14475;DHT22;7323;50.848;4.334;2022-07-06T15:54:29;23.70;99.90
14475;DHT22;7323;50.848;4.334;2022-07-06T15:56:55;24.00;99.90
14475;DHT22;7323;50.848;4.334;2022-07-06T15:59:21;24.20;1.00
14475;DHT22;7323;50.848;4.334;2022-07-06T16:01:46;24.00;1.00
14475;DHT22;7323;50.848;4.334;2022-07-06T16:04:12;24.00;1.00
14475;DHT22;7323;50.848;4.334;2022-07-06T16:06:38;24.00;1.00
14475;DHT22;7323;50.848;4.334;2022-07-06T16:09:03;24.20;1.00